Terminal Aerodrome Forecast
Issued by NWS

Current Version | Previous Version | Graphics & Text | Print | Product List | Glossary On
Versions: 1 2 3 4 5 6 7 8 9 10 11 12 13 14 15 16 17 18 19 20 21 22 23 24
000
FTUS41 KRLX 231445 AAA
TAFCKB
TAF AMD
KCKB 231445Z 2315/2412 20006KT P6SM BKN025
      TEMPO 2315/2318 BKN035
     FM231800 21004KT P6SM BKN040
     FM240600 15004KT P6SM BKN200=

USA.gov is the U.S. government's official web portal to all federal, state and local government web resources and services.